METAR Data
IDs: Format: Raw Decoded Include TAF

Data at: 0930 UTC 20 Sep 2018

KMNN 191053Z AUTO 01006KT 3SM BR BKN050 BKN065 21/20 A3001 RMK AO2 SLP155 T02060200 TSNO
KMNN 191032Z AUTO 01004KT 2 1/2SM BR FEW050 BKN120 21/20 A2999 RMK AO2 T02060200 TSNO
KMNN 190953Z AUTO 14003KT 3SM BR BKN110 21/20 A2997 RMK AO2 RAE13 SLP141 P0001 T02060200 TSNO
KMNN 190910Z AUTO 09005KT 4SM -RA BR FEW049 SCT075 OVC120 21/20 A2997 RMK AO2 P0001 T02110200 TSNO
KMNN 190900Z AUTO 07007KT 2 1/2SM -RA BR FEW055 BKN085 OVC120 21/20 A2998 RMK AO2 P0001 T02110200 TSNO
KMNN 190853Z AUTO 02006KT 1 3/4SM RA BR FEW050 BKN070 OVC085 21/20 A2998 RMK AO2 SLP145 P0009 60012 T02060200 53014 TSNO
KMNN 190839Z AUTO 02011KT 2 1/2SM -RA BR FEW050 BKN070 OVC085 21/20 A2998 RMK AO2 P0004 T02110200 TSNO
KMNN 190753Z AUTO 36011KT 5SM -RA BR SCT050 OVC080 21/19 A2996 RMK AO2 RAB36 SLP137 P0003 T02110194 TSNO
KMNN 190653Z AUTO 00000KT 10SM BKN085 21/18 A2994 RMK AO2 SLP133 T02060178 TSNO
KMNN 190553Z AUTO 00000KT 10SM CLR 20/18 A2994 RMK AO2 SLP132 T02000178 10256 20189 58000 TSNO
KMNN 190453Z AUTO 00000KT 10SM FEW100 20/18 A2995 RMK AO2 SLP133 T02000178 403170156 TSNO
KMNN 190353Z AUTO 00000KT 10SM CLR 21/17 A2995 RMK AO2 SLP136 T02110172 TSNO
KMNN 190253Z AUTO 35003KT 10SM CLR 22/18 A2994 RMK AO2 SLP132 T02220178 51008 TSNO
KMNN 190153Z AUTO 00000KT 10SM CLR 23/18 A2994 RMK AO2 SLP131 T02330178 TSNO
KMNN 190053Z AUTO 00000KT 10SM CLR 24/18 A2992 RMK AO2 SLP128 T02390178 TSNO
KMNN 182353Z AUTO 00000KT 10SM CLR 26/17 A2992 RMK AO2 SLP126 T02560172 10317 20250 53001 TSNO
KMNN 182253Z AUTO 36004KT 10SM CLR 29/16 A2991 RMK AO2 SLP123 T02940161 TSNO
KMNN 182153Z AUTO 35007KT 10SM CLR 31/15 A2991 RMK AO2 SLP123 T03110150 TSNO